DLH594 DNAA-DNPO
Flight info
| Callsign | DLH594 |
|---|---|
| Flight time | N/A |
| Altitude | 30000 |
| Route | IKVAD1Q IKVAD DCT IVBUV UV456 BORMO BORMO1R |
| Aircraft | A339/H-SADE1E2E3GHIJ3J5M1P2RWXY/LB2D1 |
Departure
| Time | N/A |
|---|---|
| Airport | Nnamdi Azikiwe International Airport (DNAA) |
Arrival
| Time | 2026-05-06 09:27 |
|---|---|
| Airport | Port Harcourt International Airport (DNPO) |
| Time | Latitude | Longitude | Altitude | Speed | Heading |
|---|---|---|---|---|---|
| 2026-05-06 09:24 | 5.05865 | 7.02755 | 781 ft | 165 kts | 296° |
| 2026-05-06 09:24 | 5.06366 | 7.01704 | 779 ft | 169 kts | 291° |
| 2026-05-06 09:25 | 5.06802 | 7.00622 | 753 ft | 163 kts | 288° |
| 2026-05-06 09:25 | 5.06925 | 6.99529 | 586 ft | 159 kts | 256° |
| 2026-05-06 09:25 | 5.06575 | 6.98477 | 504 ft | 158 kts | 245° |
| 2026-05-06 09:25 | 5.06050 | 6.97523 | 517 ft | 158 kts | 227° |
| 2026-05-06 09:26 | 5.05170 | 6.96843 | 494 ft | 159 kts | 206° |
| 2026-05-06 09:26 | 5.04181 | 6.96361 | 343 ft | 158 kts | 206° |
| 2026-05-06 09:26 | 5.03206 | 6.95848 | 220 ft | 157 kts | 207° |
| 2026-05-06 09:26 | 5.02262 | 6.95339 | 144 ft | 148 kts | 207° |
| 2026-05-06 09:27 | 5.01424 | 6.94893 | 149 ft | 119 kts | 208° |
| 2026-05-06 09:27 | 5.00796 | 6.94553 | 144 ft | 81 kts | 211° |
| 2026-05-06 09:27 | 5.00458 | 6.94369 | 136 ft | 26 kts | 208° |
| 2026-05-06 09:27 | 5.00351 | 6.94353 | 136 ft | 15 kts | 147° |
| 2026-05-06 09:28 | 5.00293 | 6.94440 | 136 ft | 15 kts | 116° |
| 2026-05-06 09:28 | 5.00302 | 6.94513 | 137 ft | 10 kts | 42° |
| 2026-05-06 09:28 | 5.00370 | 6.94556 | 138 ft | 12 kts | 30° |
| 2026-05-06 09:28 | 5.00451 | 6.94600 | 139 ft | 14 kts | 27° |
| 2026-05-06 09:29 | 5.00545 | 6.94646 | 140 ft | 15 kts | 26° |
| 2026-05-06 09:29 | 5.00647 | 6.94697 | 141 ft | 16 kts | 28° |
| 2026-05-06 09:29 | 5.00751 | 6.94758 | 142 ft | 17 kts | 33° |
| 2026-05-06 09:29 | 5.00814 | 6.94818 | 143 ft | 9 kts | 82° |
| 2026-05-06 09:30 | 5.00792 | 6.94880 | 143 ft | 9 kts | 117° |
| 2026-05-06 09:30 | 5.00781 | 6.94900 | 143 ft | 0 kts | 118° |